Apostle Islands National Lak, Wisconsin
Current Conditions -  °F | °C
As of 11:44 PM on Monday 26 Jan 2015 (Local Time) from KASX Reporting Station
Overcast Overcast  
Wind Chill: 25°   Ceiling: 1700
Heat Index: 25°   Visibility: 10mi
Dew Point: 23°   Wind: 0mph
Humidity: 92%   Direction: NA
Pressure: 29.98"   Gusts: NA
Location:  46.8614°N, 90.9101°W
Report Text: KASX 270544Z AUTO 00000KT 10SM OVC017 M04/M05 A2998 RMK AO2 T10391050
Loading
Personal Weather Stations






























Interactive Weather Map New forecast layout! Learn more

10-Day Weather Forecast

Advertisements
Track Severe Weather on mobile